sensor_id;sensor_type;location;lat;lon;timestamp;P1;durP1;ratioP1;P2;durP2;ratioP2
82292;SDS011;71892;14.836;105.234;2024-03-25T00:01:06;61.53;;;43.95;;
82292;SDS011;71892;14.836;105.234;2024-03-25T00:03:33;73.38;;;43.55;;
82292;SDS011;71892;14.836;105.234;2024-03-25T00:05:59;64.95;;;41.55;;
82292;SDS011;71892;14.836;105.234;2024-03-25T00:08:26;63.28;;;38.83;;
82292;SDS011;71892;14.836;105.234;2024-03-25T00:10:52;69.68;;;39.80;;
82292;SDS011;71892;14.836;105.234;2024-03-25T00:13:19;68.68;;;40.92;;
82292;SDS011;71892;14.836;105.234;2024-03-25T00:15:47;62.38;;;39.05;;
82292;SDS011;71892;14.836;105.234;2024-03-25T00:18:14;56.35;;;41.42;;
82292;SDS011;71892;14.836;105.234;2024-03-25T00:20:41;65.15;;;39.40;;
82292;SDS011;71892;14.836;105.234;2024-03-25T00:23:07;69.97;;;36.28;;
82292;SDS011;71892;14.836;105.234;2024-03-25T00:25:34;61.05;;;38.75;;
82292;SDS011;71892;14.836;105.234;2024-03-25T00:28:00;65.70;;;40.00;;
82292;SDS011;71892;14.836;105.234;2024-03-25T00:30:26;51.05;;;35.13;;
82292;SDS011;71892;14.836;105.234;2024-03-25T00:32:53;58.38;;;36.55;;
82292;SDS011;71892;14.836;105.234;2024-03-25T00:35:19;54.25;;;40.97;;
82292;SDS011;71892;14.836;105.234;2024-03-25T00:37:46;59.53;;;38.22;;
82292;SDS011;71892;14.836;105.234;2024-03-25T00:40:12;59.38;;;38.40;;
82292;SDS011;71892;14.836;105.234;2024-03-25T00:42:39;55.88;;;39.25;;
82292;SDS011;71892;14.836;105.234;2024-03-25T00:45:05;49.47;;;36.50;;
82292;SDS011;71892;14.836;105.234;2024-03-25T00:47:33;56.88;;;35.67;;
82292;SDS011;71892;14.836;105.234;2024-03-25T00:49:59;56.35;;;37.03;;
82292;SDS011;71892;14.836;105.234;2024-03-25T00:52:26;59.45;;;34.88;;
82292;SDS011;71892;14.836;105.234;2024-03-25T00:54:52;56.97;;;35.78;;
82292;SDS011;71892;14.836;105.234;2024-03-25T00:57:19;52.20;;;37.65;;
82292;SDS011;71892;14.836;105.234;2024-03-25T00:59:45;49.08;;;36.28;;
82292;SDS011;71892;14.836;105.234;2024-03-25T01:02:12;51.58;;;36.17;;
82292;SDS011;71892;14.836;105.234;2024-03-25T01:04:38;48.92;;;36.25;;
82292;SDS011;71892;14.836;105.234;2024-03-25T01:07:05;48.25;;;33.30;;
82292;SDS011;71892;14.836;105.234;2024-03-25T01:09:31;46.05;;;31.63;;
82292;SDS011;71892;14.836;105.234;2024-03-25T01:12:01;50.15;;;33.22;;
82292;SDS011;71892;14.836;105.234;2024-03-25T01:14:27;48.75;;;33.10;;
82292;SDS011;71892;14.836;105.234;2024-03-25T01:16:54;55.35;;;31.27;;
82292;SDS011;71892;14.836;105.234;2024-03-25T01:19:21;51.50;;;30.55;;
82292;SDS011;71892;14.836;105.234;2024-03-25T01:21:48;43.65;;;31.00;;
82292;SDS011;71892;14.836;105.234;2024-03-25T01:24:15;48.45;;;32.33;;
82292;SDS011;71892;14.836;105.234;2024-03-25T01:26:41;48.47;;;32.85;;
82292;SDS011;71892;14.836;105.234;2024-03-25T01:29:08;48.50;;;31.10;;
82292;SDS011;71892;14.836;105.234;2024-03-25T01:31:34;53.42;;;30.73;;
82292;SDS011;71892;14.836;105.234;2024-03-25T01:34:01;43.53;;;31.45;;
82292;SDS011;71892;14.836;105.234;2024-03-25T01:36:31;53.00;;;30.80;;
82292;SDS011;71892;14.836;105.234;2024-03-25T01:38:58;46.53;;;28.42;;
82292;SDS011;71892;14.836;105.234;2024-03-25T01:41:27;43.95;;;29.60;;
82292;SDS011;71892;14.836;105.234;2024-03-25T01:43:54;46.08;;;29.17;;
82292;SDS011;71892;14.836;105.234;2024-03-25T01:46:23;51.20;;;30.10;;
82292;SDS011;71892;14.836;105.234;2024-03-25T01:48:50;37.88;;;28.83;;
82292;SDS011;71892;14.836;105.234;2024-03-25T01:51:18;44.92;;;28.83;;
82292;SDS011;71892;14.836;105.234;2024-03-25T01:53:49;45.50;;;29.73;;
82292;SDS011;71892;14.836;105.234;2024-03-25T01:56:15;47.13;;;30.13;;
82292;SDS011;71892;14.836;105.234;2024-03-25T01:58:44;42.42;;;28.15;;
82292;SDS011;71892;14.836;105.234;2024-03-25T02:01:11;46.00;;;29.27;;
82292;SDS011;71892;14.836;105.234;2024-03-25T02:03:43;44.20;;;28.23;;
82292;SDS011;71892;14.836;105.234;2024-03-25T02:06:12;42.63;;;28.00;;
82292;SDS011;71892;14.836;105.234;2024-03-25T02:08:41;40.72;;;28.38;;
82292;SDS011;71892;14.836;105.234;2024-03-25T02:11:08;40.22;;;28.00;;
82292;SDS011;71892;14.836;105.234;2024-03-25T02:13:36;42.92;;;27.65;;
82292;SDS011;71892;14.836;105.234;2024-03-25T02:16:03;45.88;;;29.20;;
82292;SDS011;71892;14.836;105.234;2024-03-25T02:18:30;41.40;;;25.60;;
82292;SDS011;71892;14.836;105.234;2024-03-25T02:20:57;45.67;;;31.23;;
82292;SDS011;71892;14.836;105.234;2024-03-25T02:23:24;37.30;;;26.67;;
82292;SDS011;71892;14.836;105.234;2024-03-25T02:25:52;44.40;;;27.40;;
82292;SDS011;71892;14.836;105.234;2024-03-25T02:28:19;35.72;;;26.77;;
82292;SDS011;71892;14.836;105.234;2024-03-25T02:30:46;42.90;;;26.92;;
82292;SDS011;71892;14.836;105.234;2024-03-25T02:33:13;39.13;;;25.25;;
82292;SDS011;71892;14.836;105.234;2024-03-25T02:35:40;44.05;;;27.38;;
82292;SDS011;71892;14.836;105.234;2024-03-25T02:38:09;37.40;;;27.70;;
82292;SDS011;71892;14.836;105.234;2024-03-25T02:40:36;42.83;;;26.90;;
82292;SDS011;71892;14.836;105.234;2024-03-25T02:43:03;38.25;;;27.13;;
82292;SDS011;71892;14.836;105.234;2024-03-25T02:45:32;40.50;;;28.27;;
82292;SDS011;71892;14.836;105.234;2024-03-25T02:47:59;34.28;;;25.10;;
82292;SDS011;71892;14.836;105.234;2024-03-25T02:50:25;35.50;;;27.30;;
82292;SDS011;71892;14.836;105.234;2024-03-25T02:52:52;45.03;;;27.10;;
82292;SDS011;71892;14.836;105.234;2024-03-25T02:55:19;42.35;;;28.05;;
82292;SDS011;71892;14.836;105.234;2024-03-25T02:57:45;45.97;;;26.42;;
82292;SDS011;71892;14.836;105.234;2024-03-25T03:00:12;42.42;;;28.98;;
82292;SDS011;71892;14.836;105.234;2024-03-25T03:02:39;35.72;;;27.75;;
82292;SDS011;71892;14.836;105.234;2024-03-25T03:05:06;40.67;;;27.77;;
82292;SDS011;71892;14.836;105.234;2024-03-25T03:07:32;40.80;;;28.58;;
82292;SDS011;71892;14.836;105.234;2024-03-25T03:09:59;41.97;;;28.52;;
82292;SDS011;71892;14.836;105.234;2024-03-25T03:12:25;36.78;;;26.88;;
82292;SDS011;71892;14.836;105.234;2024-03-25T03:14:52;35.88;;;26.38;;
82292;SDS011;71892;14.836;105.234;2024-03-25T03:17:18;36.08;;;25.23;;
82292;SDS011;71892;14.836;105.234;2024-03-25T03:19:45;37.03;;;27.15;;
82292;SDS011;71892;14.836;105.234;2024-03-25T03:22:11;39.30;;;26.00;;
82292;SDS011;71892;14.836;105.234;2024-03-25T03:24:38;42.25;;;27.67;;
82292;SDS011;71892;14.836;105.234;2024-03-25T03:27:05;43.33;;;28.30;;
82292;SDS011;71892;14.836;105.234;2024-03-25T03:29:31;37.03;;;27.10;;
82292;SDS011;71892;14.836;105.234;2024-03-25T03:31:58;41.30;;;27.15;;
82292;SDS011;71892;14.836;105.234;2024-03-25T03:34:25;38.53;;;27.17;;
82292;SDS011;71892;14.836;105.234;2024-03-25T03:36:51;39.25;;;26.30;;
82292;SDS011;71892;14.836;105.234;2024-03-25T03:39:18;39.05;;;25.85;;
82292;SDS011;71892;14.836;105.234;2024-03-25T03:41:45;48.45;;;26.30;;
82292;SDS011;71892;14.836;105.234;2024-03-25T03:44:11;39.90;;;27.48;;
82292;SDS011;71892;14.836;105.234;2024-03-25T03:46:40;37.15;;;27.58;;
82292;SDS011;71892;14.836;105.234;2024-03-25T03:49:06;42.85;;;27.80;;
82292;SDS011;71892;14.836;105.234;2024-03-25T03:51:33;39.05;;;25.33;;
82292;SDS011;71892;14.836;105.234;2024-03-25T03:53:59;36.28;;;25.83;;
82292;SDS011;71892;14.836;105.234;2024-03-25T03:56:26;40.63;;;25.42;;
82292;SDS011;71892;14.836;105.234;2024-03-25T03:58:52;37.13;;;25.10;;
82292;SDS011;71892;14.836;105.234;2024-03-25T04:01:18;42.67;;;26.27;;
82292;SDS011;71892;14.836;105.234;2024-03-25T04:03:45;42.00;;;26.00;;
82292;SDS011;71892;14.836;105.234;2024-03-25T04:06:12;39.58;;;25.65;;
82292;SDS011;71892;14.836;105.234;2024-03-25T04:08:40;35.55;;;25.80;;
82292;SDS011;71892;14.836;105.234;2024-03-25T04:11:07;38.67;;;24.90;;
82292;SDS011;71892;14.836;105.234;2024-03-25T04:13:35;40.50;;;26.65;;
82292;SDS011;71892;14.836;105.234;2024-03-25T04:16:05;34.25;;;24.75;;
82292;SDS011;71892;14.836;105.234;2024-03-25T04:18:33;35.28;;;24.55;;
82292;SDS011;71892;14.836;105.234;2024-03-25T04:20:59;39.03;;;24.45;;
82292;SDS011;71892;14.836;105.234;2024-03-25T04:23:26;33.17;;;24.33;;
82292;SDS011;71892;14.836;105.234;2024-03-25T04:25:53;41.88;;;24.30;;
82292;SDS011;71892;14.836;105.234;2024-03-25T04:28:20;36.75;;;24.08;;
82292;SDS011;71892;14.836;105.234;2024-03-25T04:30:51;45.33;;;23.85;;
82292;SDS011;71892;14.836;105.234;2024-03-25T04:33:19;33.25;;;23.42;;
82292;SDS011;71892;14.836;105.234;2024-03-25T04:35:46;37.63;;;21.63;;
82292;SDS011;71892;14.836;105.234;2024-03-25T04:38:12;38.80;;;24.77;;
82292;SDS011;71892;14.836;105.234;2024-03-25T04:40:41;42.72;;;24.08;;
82292;SDS011;71892;14.836;105.234;2024-03-25T04:43:08;29.70;;;23.48;;
82292;SDS011;71892;14.836;105.234;2024-03-25T04:45:34;33.58;;;23.88;;
82292;SDS011;71892;14.836;105.234;2024-03-25T04:48:01;32.92;;;24.08;;
82292;SDS011;71892;14.836;105.234;2024-03-25T04:50:27;33.53;;;23.48;;
82292;SDS011;71892;14.836;105.234;2024-03-25T04:52:54;30.58;;;23.42;;
82292;SDS011;71892;14.836;105.234;2024-03-25T04:55:20;41.55;;;24.50;;
82292;SDS011;71892;14.836;105.234;2024-03-25T04:57:47;34.47;;;23.08;;
82292;SDS011;71892;14.836;105.234;2024-03-25T05:00:13;36.17;;;23.48;;
82292;SDS011;71892;14.836;105.234;2024-03-25T05:02:40;35.05;;;24.00;;
82292;SDS011;71892;14.836;105.234;2024-03-25T05:05:07;34.38;;;23.95;;
82292;SDS011;71892;14.836;105.234;2024-03-25T05:07:35;41.20;;;25.83;;
82292;SDS011;71892;14.836;105.234;2024-03-25T05:10:01;36.10;;;24.05;;
82292;SDS011;71892;14.836;105.234;2024-03-25T05:12:28;33.38;;;22.60;;
82292;SDS011;71892;14.836;105.234;2024-03-25T05:14:58;35.15;;;23.20;;
82292;SDS011;71892;14.836;105.234;2024-03-25T05:17:25;32.05;;;23.85;;
82292;SDS011;71892;14.836;105.234;2024-03-25T05:19:51;32.05;;;23.00;;
82292;SDS011;71892;14.836;105.234;2024-03-25T05:22:18;36.35;;;25.15;;
82292;SDS011;71892;14.836;105.234;2024-03-25T05:24:45;34.33;;;23.67;;
82292;SDS011;71892;14.836;105.234;2024-03-25T05:27:11;35.90;;;23.50;;
82292;SDS011;71892;14.836;105.234;2024-03-25T05:29:38;36.00;;;22.95;;
82292;SDS011;71892;14.836;105.234;2024-03-25T05:32:04;34.70;;;24.73;;
82292;SDS011;71892;14.836;105.234;2024-03-25T05:34:31;29.20;;;23.00;;
82292;SDS011;71892;14.836;105.234;2024-03-25T05:36:58;33.97;;;22.52;;
82292;SDS011;71892;14.836;105.234;2024-03-25T05:39:24;38.35;;;22.88;;
82292;SDS011;71892;14.836;105.234;2024-03-25T05:41:51;35.70;;;23.88;;
82292;SDS011;71892;14.836;105.234;2024-03-25T05:44:17;37.03;;;23.27;;
82292;SDS011;71892;14.836;105.234;2024-03-25T05:46:44;35.05;;;23.88;;
82292;SDS011;71892;14.836;105.234;2024-03-25T05:49:10;30.23;;;22.70;;
82292;SDS011;71892;14.836;105.234;2024-03-25T05:51:37;34.70;;;23.63;;
82292;SDS011;71892;14.836;105.234;2024-03-25T05:54:03;31.08;;;23.08;;
82292;SDS011;71892;14.836;105.234;2024-03-25T05:56:30;37.72;;;23.73;;
82292;SDS011;71892;14.836;105.234;2024-03-25T05:58:57;32.80;;;23.63;;
82292;SDS011;71892;14.836;105.234;2024-03-25T06:01:24;35.63;;;22.95;;
82292;SDS011;71892;14.836;105.234;2024-03-25T06:03:51;35.78;;;22.73;;
82292;SDS011;71892;14.836;105.234;2024-03-25T06:06:17;34.78;;;22.65;;
82292;SDS011;71892;14.836;105.234;2024-03-25T06:08:44;40.15;;;22.80;;
82292;SDS011;71892;14.836;105.234;2024-03-25T06:11:11;36.60;;;23.35;;
82292;SDS011;71892;14.836;105.234;2024-03-25T06:13:37;46.55;;;26.02;;
82292;SDS011;71892;14.836;105.234;2024-03-25T06:16:04;33.92;;;24.00;;
82292;SDS011;71892;14.836;105.234;2024-03-25T06:18:31;41.90;;;25.90;;
82292;SDS011;71892;14.836;105.234;2024-03-25T06:20:57;27.25;;;23.02;;
82292;SDS011;71892;14.836;105.234;2024-03-25T06:23:24;32.72;;;22.95;;
82292;SDS011;71892;14.836;105.234;2024-03-25T06:25:52;32.80;;;22.55;;
82292;SDS011;71892;14.836;105.234;2024-03-25T06:28:20;34.97;;;25.20;;
82292;SDS011;71892;14.836;105.234;2024-03-25T06:30:47;31.10;;;22.77;;
82292;SDS011;71892;14.836;105.234;2024-03-25T06:33:34;35.00;;;22.73;;
82292;SDS011;71892;14.836;105.234;2024-03-25T06:36:19;30.60;;;23.77;;
82292;SDS011;71892;14.836;105.234;2024-03-25T06:38:46;31.23;;;22.98;;
82292;SDS011;71892;14.836;105.234;2024-03-25T06:41:13;33.17;;;21.85;;
82292;SDS011;71892;14.836;105.234;2024-03-25T06:43:40;31.75;;;22.75;;
82292;SDS011;71892;14.836;105.234;2024-03-25T06:46:07;34.05;;;22.60;;
82292;SDS011;71892;14.836;105.234;2024-03-25T06:48:33;42.15;;;22.70;;
82292;SDS011;71892;14.836;105.234;2024-03-25T06:51:00;44.53;;;22.50;;
82292;SDS011;71892;14.836;105.234;2024-03-25T06:53:30;33.22;;;23.67;;
82292;SDS011;71892;14.836;105.234;2024-03-25T06:55:58;34.67;;;22.27;;
82292;SDS011;71892;14.836;105.234;2024-03-25T06:58:25;35.60;;;23.77;;
82292;SDS011;71892;14.836;105.234;2024-03-25T07:00:53;53.08;;;23.75;;
82292;SDS011;71892;14.836;105.234;2024-03-25T07:03:21;30.80;;;21.30;;
82292;SDS011;71892;14.836;105.234;2024-03-25T07:05:52;33.97;;;22.02;;
82292;SDS011;71892;14.836;105.234;2024-03-25T07:08:20;28.80;;;20.95;;
82292;SDS011;71892;14.836;105.234;2024-03-25T07:10:47;37.42;;;22.73;;
82292;SDS011;71892;14.836;105.234;2024-03-25T07:13:13;30.65;;;21.15;;
82292;SDS011;71892;14.836;105.234;2024-03-25T07:15:40;32.17;;;22.55;;
82292;SDS011;71892;14.836;105.234;2024-03-25T07:18:08;34.28;;;22.63;;
82292;SDS011;71892;14.836;105.234;2024-03-25T07:20:39;33.75;;;24.23;;
82292;SDS011;71892;14.836;105.234;2024-03-25T07:23:06;38.50;;;23.17;;
82292;SDS011;71892;14.836;105.234;2024-03-25T07:25:32;32.20;;;22.98;;
82292;SDS011;71892;14.836;105.234;2024-03-25T07:27:59;30.92;;;22.35;;
82292;SDS011;71892;14.836;105.234;2024-03-25T07:30:26;29.02;;;22.45;;
82292;SDS011;71892;14.836;105.234;2024-03-25T07:32:55;29.00;;;20.27;;
82292;SDS011;71892;14.836;105.234;2024-03-25T07:35:22;27.63;;;22.40;;
82292;SDS011;71892;14.836;105.234;2024-03-25T07:37:49;29.05;;;22.15;;
82292;SDS011;71892;14.836;105.234;2024-03-25T07:40:19;30.08;;;23.35;;
82292;SDS011;71892;14.836;105.234;2024-03-25T07:42:46;29.17;;;20.77;;
82292;SDS011;71892;14.836;105.234;2024-03-25T07:45:14;32.15;;;20.67;;
82292;SDS011;71892;14.836;105.234;2024-03-25T07:47:41;30.17;;;21.70;;
82292;SDS011;71892;14.836;105.234;2024-03-25T07:50:07;29.00;;;21.27;;
82292;SDS011;71892;14.836;105.234;2024-03-25T07:52:34;36.67;;;21.67;;
82292;SDS011;71892;14.836;105.234;2024-03-25T07:55:06;31.00;;;22.70;;
82292;SDS011;71892;14.836;105.234;2024-03-25T07:57:33;28.95;;;22.05;;
82292;SDS011;71892;14.836;105.234;2024-03-25T07:59:59;31.67;;;21.92;;
82292;SDS011;71892;14.836;105.234;2024-03-25T08:02:27;31.67;;;21.38;;
82292;SDS011;71892;14.836;105.234;2024-03-25T08:04:53;31.83;;;20.70;;
82292;SDS011;71892;14.836;105.234;2024-03-25T08:07:20;28.90;;;21.23;;
82292;SDS011;71892;14.836;105.234;2024-03-25T08:09:46;28.58;;;21.77;;
82292;SDS011;71892;14.836;105.234;2024-03-25T08:12:13;31.25;;;22.00;;
82292;SDS011;71892;14.836;105.234;2024-03-25T08:14:39;31.00;;;21.27;;
82292;SDS011;71892;14.836;105.234;2024-03-25T08:17:07;31.33;;;21.52;;
82292;SDS011;71892;14.836;105.234;2024-03-25T08:19:33;35.83;;;22.02;;
82292;SDS011;71892;14.836;105.234;2024-03-25T08:22:00;32.47;;;23.08;;
82292;SDS011;71892;14.836;105.234;2024-03-25T08:24:26;32.25;;;22.05;;
82292;SDS011;71892;14.836;105.234;2024-03-25T08:26:53;28.30;;;22.50;;
82292;SDS011;71892;14.836;105.234;2024-03-25T08:29:20;28.75;;;22.20;;
82292;SDS011;71892;14.836;105.234;2024-03-25T08:31:46;33.15;;;23.17;;
82292;SDS011;71892;14.836;105.234;2024-03-25T08:34:13;29.60;;;21.70;;
82292;SDS011;71892;14.836;105.234;2024-03-25T08:36:39;28.83;;;22.25;;
82292;SDS011;71892;14.836;105.234;2024-03-25T08:39:06;36.17;;;22.77;;
82292;SDS011;71892;14.836;105.234;2024-03-25T08:41:32;33.15;;;23.17;;
82292;SDS011;71892;14.836;105.234;2024-03-25T08:43:59;30.83;;;24.13;;
82292;SDS011;71892;14.836;105.234;2024-03-25T08:46:25;29.98;;;20.70;;
82292;SDS011;71892;14.836;105.234;2024-03-25T08:48:52;28.40;;;21.92;;
82292;SDS011;71892;14.836;105.234;2024-03-25T08:51:18;34.42;;;23.08;;
82292;SDS011;71892;14.836;105.234;2024-03-25T08:53:45;28.73;;;20.40;;
82292;SDS011;71892;14.836;105.234;2024-03-25T08:56:11;30.95;;;22.17;;
82292;SDS011;71892;14.836;105.234;2024-03-25T08:58:38;34.10;;;22.10;;
82292;SDS011;71892;14.836;105.234;2024-03-25T09:01:04;32.22;;;21.80;;
82292;SDS011;71892;14.836;105.234;2024-03-25T09:03:31;26.77;;;21.83;;
82292;SDS011;71892;14.836;105.234;2024-03-25T09:05:58;28.48;;;22.17;;
82292;SDS011;71892;14.836;105.234;2024-03-25T09:08:25;34.47;;;22.58;;
82292;SDS011;71892;14.836;105.234;2024-03-25T09:10:52;31.55;;;22.20;;
82292;SDS011;71892;14.836;105.234;2024-03-25T09:13:32;33.97;;;23.30;;
82292;SDS011;71892;14.836;105.234;2024-03-25T09:16:02;32.90;;;23.20;;
82292;SDS011;71892;14.836;105.234;2024-03-25T09:18:29;27.30;;;20.80;;
82292;SDS011;71892;14.836;105.234;2024-03-25T09:20:55;33.83;;;23.98;;
82292;SDS011;71892;14.836;105.234;2024-03-25T09:23:22;28.85;;;22.17;;
82292;SDS011;71892;14.836;105.234;2024-03-25T09:25:55;29.92;;;21.60;;
82292;SDS011;71892;14.836;105.234;2024-03-25T09:28:21;34.35;;;22.35;;
82292;SDS011;71892;14.836;105.234;2024-03-25T09:30:48;28.30;;;22.17;;
82292;SDS011;71892;14.836;105.234;2024-03-25T09:33:15;30.63;;;22.92;;
82292;SDS011;71892;14.836;105.234;2024-03-25T09:35:41;29.15;;;21.67;;
82292;SDS011;71892;14.836;105.234;2024-03-25T09:38:08;40.90;;;25.42;;
82292;SDS011;71892;14.836;105.234;2024-03-25T09:40:39;31.85;;;22.45;;
82292;SDS011;71892;14.836;105.234;2024-03-25T09:43:07;40.22;;;23.42;;
82292;SDS011;71892;14.836;105.234;2024-03-25T09:45:42;34.95;;;21.90;;
82292;SDS011;71892;14.836;105.234;2024-03-25T09:48:13;34.83;;;23.08;;
82292;SDS011;71892;14.836;105.234;2024-03-25T09:55:35;37.65;;;24.02;;
82292;SDS011;71892;14.836;105.234;2024-03-25T10:00:52;32.33;;;24.02;;
82292;SDS011;71892;14.836;105.234;2024-03-25T10:03:20;33.08;;;22.08;;
82292;SDS011;71892;14.836;105.234;2024-03-25T10:05:47;26.88;;;21.55;;
82292;SDS011;71892;14.836;105.234;2024-03-25T10:08:19;35.42;;;24.15;;
82292;SDS011;71892;14.836;105.234;2024-03-25T10:10:46;33.53;;;23.42;;
82292;SDS011;71892;14.836;105.234;2024-03-25T10:13:13;32.03;;;23.70;;
82292;SDS011;71892;14.836;105.234;2024-03-25T10:15:41;27.63;;;21.85;;
82292;SDS011;71892;14.836;105.234;2024-03-25T10:18:07;36.80;;;24.70;;
82292;SDS011;71892;14.836;105.234;2024-03-25T10:20:37;32.55;;;24.33;;
82292;SDS011;71892;14.836;105.234;2024-03-25T10:23:03;36.33;;;24.83;;
82292;SDS011;71892;14.836;105.234;2024-03-25T10:25:30;34.80;;;22.90;;
82292;SDS011;71892;14.836;105.234;2024-03-25T10:28:00;38.47;;;26.77;;
82292;SDS011;71892;14.836;105.234;2024-03-25T10:30:28;42.33;;;24.88;;
82292;SDS011;71892;14.836;105.234;2024-03-25T10:35:28;38.80;;;25.73;;
82292;SDS011;71892;14.836;105.234;2024-03-25T10:38:00;42.50;;;25.63;;
82292;SDS011;71892;14.836;105.234;2024-03-25T10:40:34;36.28;;;24.52;;
82292;SDS011;71892;14.836;105.234;2024-03-25T10:43:03;31.13;;;24.25;;
82292;SDS011;71892;14.836;105.234;2024-03-25T10:45:46;32.83;;;25.38;;
82292;SDS011;71892;14.836;105.234;2024-03-25T10:48:21;38.55;;;27.48;;
82292;SDS011;71892;14.836;105.234;2024-03-25T10:50:54;33.80;;;25.95;;
82292;SDS011;71892;14.836;105.234;2024-03-25T10:53:22;34.70;;;28.48;;
82292;SDS011;71892;14.836;105.234;2024-03-25T10:55:52;36.80;;;25.85;;
82292;SDS011;71892;14.836;105.234;2024-03-25T10:58:23;39.35;;;27.00;;
82292;SDS011;71892;14.836;105.234;2024-03-25T11:00:51;41.80;;;27.35;;
82292;SDS011;71892;14.836;105.234;2024-03-25T11:03:20;48.10;;;26.42;;
82292;SDS011;71892;14.836;105.234;2024-03-25T11:05:48;33.80;;;25.13;;
82292;SDS011;71892;14.836;105.234;2024-03-25T11:08:16;35.80;;;28.38;;
82292;SDS011;71892;14.836;105.234;2024-03-25T11:10:43;35.50;;;25.83;;
82292;SDS011;71892;14.836;105.234;2024-03-25T11:13:17;36.55;;;25.67;;
82292;SDS011;71892;14.836;105.234;2024-03-25T11:15:44;58.35;;;26.15;;
82292;SDS011;71892;14.836;105.234;2024-03-25T11:18:13;38.63;;;26.58;;
82292;SDS011;71892;14.836;105.234;2024-03-25T11:20:40;41.35;;;26.88;;
82292;SDS011;71892;14.836;105.234;2024-03-25T11:23:11;39.53;;;27.02;;
82292;SDS011;71892;14.836;105.234;2024-03-25T11:25:40;33.75;;;26.45;;
82292;SDS011;71892;14.836;105.234;2024-03-25T11:28:07;37.75;;;26.70;;
82292;SDS011;71892;14.836;105.234;2024-03-25T11:30:36;37.20;;;28.15;;
82292;SDS011;71892;14.836;105.234;2024-03-25T11:33:03;38.55;;;27.95;;
82292;SDS011;71892;14.836;105.234;2024-03-25T11:35:30;36.50;;;26.40;;
82292;SDS011;71892;14.836;105.234;2024-03-25T11:38:03;36.28;;;27.67;;
82292;SDS011;71892;14.836;105.234;2024-03-25T11:40:29;41.72;;;28.73;;
82292;SDS011;71892;14.836;105.234;2024-03-25T11:42:58;40.30;;;28.42;;
82292;SDS011;71892;14.836;105.234;2024-03-25T11:45:25;46.28;;;33.40;;
82292;SDS011;71892;14.836;105.234;2024-03-25T11:47:51;64.82;;;36.55;;
82292;SDS011;71892;14.836;105.234;2024-03-25T11:50:19;52.05;;;34.65;;
82292;SDS011;71892;14.836;105.234;2024-03-25T11:52:45;57.17;;;34.85;;
82292;SDS011;71892;14.836;105.234;2024-03-25T11:55:21;47.33;;;32.60;;
82292;SDS011;71892;14.836;105.234;2024-03-25T11:57:54;46.55;;;31.85;;
82292;SDS011;71892;14.836;105.234;2024-03-25T12:00:21;45.10;;;30.73;;
82292;SDS011;71892;14.836;105.234;2024-03-25T12:02:48;55.25;;;33.08;;
82292;SDS011;71892;14.836;105.234;2024-03-25T12:05:14;46.80;;;36.42;;
82292;SDS011;71892;14.836;105.234;2024-03-25T12:07:41;48.72;;;34.72;;
82292;SDS011;71892;14.836;105.234;2024-03-25T12:10:07;56.05;;;35.70;;
82292;SDS011;71892;14.836;105.234;2024-03-25T12:12:52;49.00;;;35.53;;
82292;SDS011;71892;14.836;105.234;2024-03-25T12:15:19;55.95;;;34.80;;
82292;SDS011;71892;14.836;105.234;2024-03-25T12:17:45;47.90;;;35.80;;
82292;SDS011;71892;14.836;105.234;2024-03-25T12:20:13;52.72;;;34.78;;
82292;SDS011;71892;14.836;105.234;2024-03-25T12:22:39;50.95;;;35.83;;
82292;SDS011;71892;14.836;105.234;2024-03-25T12:25:07;56.08;;;38.90;;
82292;SDS011;71892;14.836;105.234;2024-03-25T12:27:35;56.85;;;42.83;;
82292;SDS011;71892;14.836;105.234;2024-03-25T12:30:09;80.38;;;43.30;;
82292;SDS011;71892;14.836;105.234;2024-03-25T12:37:40;102.85;;;50.95;;
82292;SDS011;71892;14.836;105.234;2024-03-25T12:40:09;133.93;;;61.78;;
82292;SDS011;71892;14.836;105.234;2024-03-25T12:45:04;124.47;;;69.25;;
82292;SDS011;71892;14.836;105.234;2024-03-25T12:47:31;125.40;;;68.78;;
82292;SDS011;71892;14.836;105.234;2024-03-25T12:49:58;116.72;;;66.85;;
82292;SDS011;71892;14.836;105.234;2024-03-25T12:52:24;97.28;;;58.65;;
82292;SDS011;71892;14.836;105.234;2024-03-25T12:54:51;88.38;;;53.83;;
82292;SDS011;71892;14.836;105.234;2024-03-25T12:57:18;76.13;;;49.47;;
82292;SDS011;71892;14.836;105.234;2024-03-25T12:59:45;81.88;;;50.60;;
82292;SDS011;71892;14.836;105.234;2024-03-25T13:02:12;66.65;;;44.83;;
82292;SDS011;71892;14.836;105.234;2024-03-25T13:04:38;67.82;;;48.20;;
82292;SDS011;71892;14.836;105.234;2024-03-25T13:07:09;67.13;;;46.03;;
82292;SDS011;71892;14.836;105.234;2024-03-25T13:09:38;65.70;;;46.35;;
82292;SDS011;71892;14.836;105.234;2024-03-25T13:12:05;58.92;;;42.47;;
82292;SDS011;71892;14.836;105.234;2024-03-25T13:14:31;59.92;;;41.08;;
82292;SDS011;71892;14.836;105.234;2024-03-25T13:16:58;62.17;;;40.95;;
82292;SDS011;71892;14.836;105.234;2024-03-25T13:19:24;48.97;;;38.92;;
82292;SDS011;71892;14.836;105.234;2024-03-25T13:21:54;58.83;;;38.95;;
82292;SDS011;71892;14.836;105.234;2024-03-25T13:24:21;58.92;;;39.10;;
82292;SDS011;71892;14.836;105.234;2024-03-25T13:26:51;67.65;;;44.53;;
82292;SDS011;71892;14.836;105.234;2024-03-25T13:29:17;95.20;;;55.15;;
82292;SDS011;71892;14.836;105.234;2024-03-25T13:31:43;81.72;;;51.25;;
82292;SDS011;71892;14.836;105.234;2024-03-25T13:34:10;84.20;;;52.25;;
82292;SDS011;71892;14.836;105.234;2024-03-25T13:36:41;77.80;;;49.13;;
82292;SDS011;71892;14.836;105.234;2024-03-25T13:39:08;69.55;;;46.00;;
82292;SDS011;71892;14.836;105.234;2024-03-25T13:41:35;69.43;;;47.13;;
82292;SDS011;71892;14.836;105.234;2024-03-25T13:44:02;70.57;;;46.65;;
82292;SDS011;71892;14.836;105.234;2024-03-25T13:46:29;65.85;;;47.40;;
82292;SDS011;71892;14.836;105.234;2024-03-25T13:48:55;77.50;;;48.75;;
82292;SDS011;71892;14.836;105.234;2024-03-25T13:51:22;73.65;;;48.45;;
82292;SDS011;71892;14.836;105.234;2024-03-25T13:53:48;68.15;;;46.35;;
82292;SDS011;71892;14.836;105.234;2024-03-25T13:56:15;73.65;;;48.97;;
82292;SDS011;71892;14.836;105.234;2024-03-25T13:58:42;83.30;;;51.75;;
82292;SDS011;71892;14.836;105.234;2024-03-25T14:01:09;81.20;;;52.30;;
82292;SDS011;71892;14.836;105.234;2024-03-25T14:03:35;70.70;;;49.05;;
82292;SDS011;71892;14.836;105.234;2024-03-25T14:06:02;67.63;;;47.97;;
82292;SDS011;71892;14.836;105.234;2024-03-25T14:08:29;61.60;;;44.70;;
82292;SDS011;71892;14.836;105.234;2024-03-25T14:10:58;64.13;;;43.92;;
82292;SDS011;71892;14.836;105.234;2024-03-25T14:13:25;71.05;;;46.00;;
82292;SDS011;71892;14.836;105.234;2024-03-25T14:15:52;62.72;;;45.45;;